sensor_id;sensor_type;location;lat;lon;timestamp;P1;durP1;ratioP1;P2;durP2;ratioP2
60847;SDS011;46681;47.696;9.140;2022-10-31T00:00:07;11.47;;;9.23;;
60847;SDS011;46681;47.696;9.140;2022-10-31T00:02:33;12.87;;;8.97;;
60847;SDS011;46681;47.696;9.140;2022-10-31T00:04:59;12.53;;;9.03;;
60847;SDS011;46681;47.696;9.140;2022-10-31T00:07:25;15.70;;;9.67;;
60847;SDS011;46681;47.696;9.140;2022-10-31T00:09:50;12.90;;;9.53;;
60847;SDS011;46681;47.696;9.140;2022-10-31T00:12:16;12.33;;;8.77;;
60847;SDS011;46681;47.696;9.140;2022-10-31T00:14:43;11.53;;;8.90;;
60847;SDS011;46681;47.696;9.140;2022-10-31T00:17:09;14.03;;;9.03;;
60847;SDS011;46681;47.696;9.140;2022-10-31T00:19:34;13.63;;;8.97;;
60847;SDS011;46681;47.696;9.140;2022-10-31T00:22:00;12.63;;;8.67;;
60847;SDS011;46681;47.696;9.140;2022-10-31T00:24:26;10.87;;;8.50;;
60847;SDS011;46681;47.696;9.140;2022-10-31T00:26:51;8.67;;;7.77;;
60847;SDS011;46681;47.696;9.140;2022-10-31T00:29:19;10.00;;;7.63;;
60847;SDS011;46681;47.696;9.140;2022-10-31T00:31:47;10.13;;;8.67;;
60847;SDS011;46681;47.696;9.140;2022-10-31T00:34:12;11.13;;;8.07;;
60847;SDS011;46681;47.696;9.140;2022-10-31T00:36:38;11.83;;;8.33;;
60847;SDS011;46681;47.696;9.140;2022-10-31T00:39:03;11.30;;;8.27;;
60847;SDS011;46681;47.696;9.140;2022-10-31T00:41:29;12.40;;;7.73;;
60847;SDS011;46681;47.696;9.140;2022-10-31T00:43:56;10.93;;;8.00;;
60847;SDS011;46681;47.696;9.140;2022-10-31T00:46:21;11.17;;;8.60;;
60847;SDS011;46681;47.696;9.140;2022-10-31T00:48:47;8.83;;;7.97;;
60847;SDS011;46681;47.696;9.140;2022-10-31T00:51:12;8.17;;;7.30;;
60847;SDS011;46681;47.696;9.140;2022-10-31T00:53:38;9.77;;;7.93;;
60847;SDS011;46681;47.696;9.140;2022-10-31T00:56:06;9.87;;;7.40;;
60847;SDS011;46681;47.696;9.140;2022-10-31T00:58:31;9.50;;;8.13;;
60847;SDS011;46681;47.696;9.140;2022-10-31T01:00:57;11.17;;;7.13;;
60847;SDS011;46681;47.696;9.140;2022-10-31T01:03:32;9.80;;;7.33;;
60847;SDS011;46681;47.696;9.140;2022-10-31T01:06:01;9.53;;;7.80;;
60847;SDS011;46681;47.696;9.140;2022-10-31T01:08:31;9.73;;;7.33;;
60847;SDS011;46681;47.696;9.140;2022-10-31T01:11:01;8.33;;;7.10;;
60847;SDS011;46681;47.696;9.140;2022-10-31T01:13:35;10.07;;;7.87;;
60847;SDS011;46681;47.696;9.140;2022-10-31T01:16:01;11.13;;;7.40;;
60847;SDS011;46681;47.696;9.140;2022-10-31T01:18:30;9.27;;;7.20;;
60847;SDS011;46681;47.696;9.140;2022-10-31T01:20:57;8.30;;;6.47;;
60847;SDS011;46681;47.696;9.140;2022-10-31T01:23:33;8.70;;;6.50;;
60847;SDS011;46681;47.696;9.140;2022-10-31T01:26:03;7.53;;;6.07;;
60847;SDS011;46681;47.696;9.140;2022-10-31T01:28:42;7.73;;;6.20;;
60847;SDS011;46681;47.696;9.140;2022-10-31T01:31:11;6.93;;;6.03;;
60847;SDS011;46681;47.696;9.140;2022-10-31T01:33:39;7.80;;;6.10;;
60847;SDS011;46681;47.696;9.140;2022-10-31T01:38:40;7.30;;;5.93;;
60847;SDS011;46681;47.696;9.140;2022-10-31T01:41:05;7.43;;;6.63;;
60847;SDS011;46681;47.696;9.140;2022-10-31T01:46:27;7.07;;;6.37;;
60847;SDS011;46681;47.696;9.140;2022-10-31T01:48:59;6.07;;;5.47;;
60847;SDS011;46681;47.696;9.140;2022-10-31T01:51:28;5.90;;;5.40;;
60847;SDS011;46681;47.696;9.140;2022-10-31T01:53:59;5.63;;;5.13;;
60847;SDS011;46681;47.696;9.140;2022-10-31T01:56:30;5.60;;;4.83;;
60847;SDS011;46681;47.696;9.140;2022-10-31T01:58:59;6.00;;;4.97;;
60847;SDS011;46681;47.696;9.140;2022-10-31T02:01:28;5.40;;;4.97;;
60847;SDS011;46681;47.696;9.140;2022-10-31T02:03:54;6.30;;;5.27;;
60847;SDS011;46681;47.696;9.140;2022-10-31T02:06:29;5.10;;;4.60;;
60847;SDS011;46681;47.696;9.140;2022-10-31T02:09:05;5.03;;;4.63;;
60847;SDS011;46681;47.696;9.140;2022-10-31T02:11:32;6.30;;;5.57;;
60847;SDS011;46681;47.696;9.140;2022-10-31T02:14:05;5.63;;;5.10;;
60847;SDS011;46681;47.696;9.140;2022-10-31T02:16:31;4.97;;;4.50;;
60847;SDS011;46681;47.696;9.140;2022-10-31T02:18:57;5.73;;;5.13;;
60847;SDS011;46681;47.696;9.140;2022-10-31T02:31:53;5.30;;;4.90;;
60847;SDS011;46681;47.696;9.140;2022-10-31T02:34:33;4.90;;;4.53;;
60847;SDS011;46681;47.696;9.140;2022-10-31T02:37:16;5.17;;;4.63;;
60847;SDS011;46681;47.696;9.140;2022-10-31T02:39:53;5.10;;;4.70;;
60847;SDS011;46681;47.696;9.140;2022-10-31T02:42:31;5.20;;;4.70;;
60847;SDS011;46681;47.696;9.140;2022-10-31T02:45:12;4.50;;;4.10;;
60847;SDS011;46681;47.696;9.140;2022-10-31T02:47:38;4.60;;;4.20;;
60847;SDS011;46681;47.696;9.140;2022-10-31T02:50:06;4.77;;;4.37;;
60847;SDS011;46681;47.696;9.140;2022-10-31T02:52:37;4.90;;;4.50;;
60847;SDS011;46681;47.696;9.140;2022-10-31T02:55:38;5.13;;;4.47;;
60847;SDS011;46681;47.696;9.140;2022-10-31T03:00:35;4.30;;;3.90;;
60847;SDS011;46681;47.696;9.140;2022-10-31T03:03:47;4.33;;;3.83;;
60847;SDS011;46681;47.696;9.140;2022-10-31T03:06:17;4.37;;;3.97;;
60847;SDS011;46681;47.696;9.140;2022-10-31T03:14:53;4.33;;;4.03;;
60847;SDS011;46681;47.696;9.140;2022-10-31T03:17:44;4.07;;;3.77;;
60847;SDS011;46681;47.696;9.140;2022-10-31T03:20:12;3.90;;;3.60;;
60847;SDS011;46681;47.696;9.140;2022-10-31T03:22:40;4.10;;;3.80;;
60847;SDS011;46681;47.696;9.140;2022-10-31T03:25:07;4.40;;;4.10;;
60847;SDS011;46681;47.696;9.140;2022-10-31T03:27:34;4.23;;;3.80;;
60847;SDS011;46681;47.696;9.140;2022-10-31T03:30:03;4.33;;;3.93;;
60847;SDS011;46681;47.696;9.140;2022-10-31T03:32:34;4.23;;;3.93;;
60847;SDS011;46681;47.696;9.140;2022-10-31T03:35:05;4.00;;;3.70;;
60847;SDS011;46681;47.696;9.140;2022-10-31T03:37:34;4.10;;;3.73;;
60847;SDS011;46681;47.696;9.140;2022-10-31T03:40:06;4.20;;;3.90;;
60847;SDS011;46681;47.696;9.140;2022-10-31T03:42:34;3.80;;;3.60;;
60847;SDS011;46681;47.696;9.140;2022-10-31T03:45:06;3.90;;;3.60;;
60847;SDS011;46681;47.696;9.140;2022-10-31T03:47:38;3.97;;;3.67;;
60847;SDS011;46681;47.696;9.140;2022-10-31T03:50:06;3.70;;;3.40;;
60847;SDS011;46681;47.696;9.140;2022-10-31T03:55:13;3.77;;;3.50;;
60847;SDS011;46681;47.696;9.140;2022-10-31T03:57:46;4.10;;;3.80;;
60847;SDS011;46681;47.696;9.140;2022-10-31T04:00:27;4.03;;;3.73;;
60847;SDS011;46681;47.696;9.140;2022-10-31T04:03:03;3.63;;;3.40;;
60847;SDS011;46681;47.696;9.140;2022-10-31T04:05:36;4.23;;;3.87;;
60847;SDS011;46681;47.696;9.140;2022-10-31T04:08:04;3.93;;;3.63;;
60847;SDS011;46681;47.696;9.140;2022-10-31T04:10:34;3.67;;;3.37;;
60847;SDS011;46681;47.696;9.140;2022-10-31T04:13:12;3.57;;;3.33;;
60847;SDS011;46681;47.696;9.140;2022-10-31T04:15:42;3.63;;;3.40;;
60847;SDS011;46681;47.696;9.140;2022-10-31T04:18:09;3.43;;;3.23;;
60847;SDS011;46681;47.696;9.140;2022-10-31T04:20:36;3.63;;;3.20;;
60847;SDS011;46681;47.696;9.140;2022-10-31T04:23:11;3.93;;;3.63;;
60847;SDS011;46681;47.696;9.140;2022-10-31T04:25:49;3.67;;;3.37;;
60847;SDS011;46681;47.696;9.140;2022-10-31T04:28:14;2.90;;;2.80;;
60847;SDS011;46681;47.696;9.140;2022-10-31T04:30:40;3.33;;;3.13;;
60847;SDS011;46681;47.696;9.140;2022-10-31T04:33:05;3.43;;;3.23;;
60847;SDS011;46681;47.696;9.140;2022-10-31T04:35:32;3.60;;;3.30;;
60847;SDS011;46681;47.696;9.140;2022-10-31T04:37:58;3.10;;;2.90;;
60847;SDS011;46681;47.696;9.140;2022-10-31T04:40:23;4.07;;;3.43;;
60847;SDS011;46681;47.696;9.140;2022-10-31T04:42:49;3.20;;;3.00;;
60847;SDS011;46681;47.696;9.140;2022-10-31T04:45:15;2.83;;;2.73;;
60847;SDS011;46681;47.696;9.140;2022-10-31T04:47:40;3.07;;;2.73;;
60847;SDS011;46681;47.696;9.140;2022-10-31T04:50:07;3.27;;;2.97;;
60847;SDS011;46681;47.696;9.140;2022-10-31T04:52:41;3.13;;;2.93;;
60847;SDS011;46681;47.696;9.140;2022-10-31T04:55:10;3.13;;;2.93;;
60847;SDS011;46681;47.696;9.140;2022-10-31T04:57:44;2.60;;;2.50;;
60847;SDS011;46681;47.696;9.140;2022-10-31T05:00:11;3.10;;;2.53;;
60847;SDS011;46681;47.696;9.140;2022-10-31T05:02:54;3.10;;;2.90;;
60847;SDS011;46681;47.696;9.140;2022-10-31T05:05:23;2.90;;;2.70;;
60847;SDS011;46681;47.696;9.140;2022-10-31T05:07:50;3.33;;;3.13;;
60847;SDS011;46681;47.696;9.140;2022-10-31T05:10:20;3.40;;;3.20;;
60847;SDS011;46681;47.696;9.140;2022-10-31T05:12:49;3.37;;;3.17;;
60847;SDS011;46681;47.696;9.140;2022-10-31T05:15:20;3.37;;;3.17;;
60847;SDS011;46681;47.696;9.140;2022-10-31T05:17:48;3.07;;;2.90;;
60847;SDS011;46681;47.696;9.140;2022-10-31T05:20:16;3.40;;;3.20;;
60847;SDS011;46681;47.696;9.140;2022-10-31T05:22:43;3.13;;;2.70;;
60847;SDS011;46681;47.696;9.140;2022-10-31T05:25:10;3.07;;;2.87;;
60847;SDS011;46681;47.696;9.140;2022-10-31T05:27:43;2.73;;;2.63;;
60847;SDS011;46681;47.696;9.140;2022-10-31T05:30:13;3.07;;;2.90;;
60847;SDS011;46681;47.696;9.140;2022-10-31T05:32:45;2.80;;;2.70;;
60847;SDS011;46681;47.696;9.140;2022-10-31T05:35:13;2.63;;;2.53;;
60847;SDS011;46681;47.696;9.140;2022-10-31T05:37:41;3.33;;;3.13;;
60847;SDS011;46681;47.696;9.140;2022-10-31T05:40:08;3.77;;;3.50;;
60847;SDS011;46681;47.696;9.140;2022-10-31T05:42:39;3.53;;;3.23;;
60847;SDS011;46681;47.696;9.140;2022-10-31T05:45:08;3.20;;;3.00;;
60847;SDS011;46681;47.696;9.140;2022-10-31T05:47:37;3.20;;;3.00;;
60847;SDS011;46681;47.696;9.140;2022-10-31T05:50:03;3.20;;;3.00;;
60847;SDS011;46681;47.696;9.140;2022-10-31T05:52:30;3.13;;;2.93;;
60847;SDS011;46681;47.696;9.140;2022-10-31T05:54:57;3.17;;;2.97;;
60847;SDS011;46681;47.696;9.140;2022-10-31T05:57:24;3.17;;;3.00;;
60847;SDS011;46681;47.696;9.140;2022-10-31T05:59:51;3.40;;;3.10;;
60847;SDS011;46681;47.696;9.140;2022-10-31T06:02:17;3.17;;;2.97;;
60847;SDS011;46681;47.696;9.140;2022-10-31T06:04:45;3.10;;;2.90;;
60847;SDS011;46681;47.696;9.140;2022-10-31T06:07:11;3.07;;;2.87;;
60847;SDS011;46681;47.696;9.140;2022-10-31T06:09:40;3.00;;;2.80;;
60847;SDS011;46681;47.696;9.140;2022-10-31T06:12:08;2.93;;;2.73;;
60847;SDS011;46681;47.696;9.140;2022-10-31T06:14:35;3.00;;;2.90;;
60847;SDS011;46681;47.696;9.140;2022-10-31T06:17:01;2.87;;;2.77;;
60847;SDS011;46681;47.696;9.140;2022-10-31T06:19:26;2.90;;;2.70;;
60847;SDS011;46681;47.696;9.140;2022-10-31T06:21:52;3.20;;;2.90;;
60847;SDS011;46681;47.696;9.140;2022-10-31T06:24:17;3.67;;;3.47;;
60847;SDS011;46681;47.696;9.140;2022-10-31T06:26:49;3.30;;;3.10;;
60847;SDS011;46681;47.696;9.140;2022-10-31T06:29:14;3.30;;;3.10;;
60847;SDS011;46681;47.696;9.140;2022-10-31T06:31:41;3.00;;;2.80;;
60847;SDS011;46681;47.696;9.140;2022-10-31T06:34:08;3.30;;;3.10;;
60847;SDS011;46681;47.696;9.140;2022-10-31T06:36:36;3.13;;;2.93;;
60847;SDS011;46681;47.696;9.140;2022-10-31T06:39:04;3.00;;;2.80;;
60847;SDS011;46681;47.696;9.140;2022-10-31T06:41:34;3.40;;;3.20;;
60847;SDS011;46681;47.696;9.140;2022-10-31T06:44:07;3.10;;;2.90;;
60847;SDS011;46681;47.696;9.140;2022-10-31T06:46:39;4.07;;;3.37;;
60847;SDS011;46681;47.696;9.140;2022-10-31T06:49:06;3.33;;;3.13;;
60847;SDS011;46681;47.696;9.140;2022-10-31T06:51:33;3.60;;;3.40;;
60847;SDS011;46681;47.696;9.140;2022-10-31T06:54:01;3.43;;;3.23;;
60847;SDS011;46681;47.696;9.140;2022-10-31T06:56:30;2.90;;;2.70;;
60847;SDS011;46681;47.696;9.140;2022-10-31T06:58:58;3.27;;;3.07;;
60847;SDS011;46681;47.696;9.140;2022-10-31T07:01:26;3.23;;;3.03;;
60847;SDS011;46681;47.696;9.140;2022-10-31T07:03:53;3.37;;;3.17;;
60847;SDS011;46681;47.696;9.140;2022-10-31T07:06:28;3.10;;;2.90;;
60847;SDS011;46681;47.696;9.140;2022-10-31T07:08:57;3.00;;;2.80;;
60847;SDS011;46681;47.696;9.140;2022-10-31T07:11:30;2.77;;;2.67;;
60847;SDS011;46681;47.696;9.140;2022-10-31T07:13:56;3.33;;;3.13;;
60847;SDS011;46681;47.696;9.140;2022-10-31T07:16:27;3.40;;;3.20;;
60847;SDS011;46681;47.696;9.140;2022-10-31T07:18:57;3.67;;;2.83;;
60847;SDS011;46681;47.696;9.140;2022-10-31T07:21:24;3.33;;;3.00;;
60847;SDS011;46681;47.696;9.140;2022-10-31T07:23:49;3.57;;;3.27;;
60847;SDS011;46681;47.696;9.140;2022-10-31T07:26:26;3.20;;;3.00;;
60847;SDS011;46681;47.696;9.140;2022-10-31T07:29:00;3.00;;;2.80;;
60847;SDS011;46681;47.696;9.140;2022-10-31T07:31:28;3.20;;;3.00;;
60847;SDS011;46681;47.696;9.140;2022-10-31T07:33:57;3.37;;;2.47;;
60847;SDS011;46681;47.696;9.140;2022-10-31T07:36:25;3.60;;;3.30;;
60847;SDS011;46681;47.696;9.140;2022-10-31T07:38:59;3.03;;;2.83;;
60847;SDS011;46681;47.696;9.140;2022-10-31T07:41:29;3.37;;;3.07;;
60847;SDS011;46681;47.696;9.140;2022-10-31T07:43:57;4.50;;;2.73;;
60847;SDS011;46681;47.696;9.140;2022-10-31T07:46:24;3.37;;;3.17;;
60847;SDS011;46681;47.696;9.140;2022-10-31T07:48:51;3.20;;;3.00;;
60847;SDS011;46681;47.696;9.140;2022-10-31T07:51:23;3.10;;;2.90;;
60847;SDS011;46681;47.696;9.140;2022-10-31T07:53:49;3.70;;;3.40;;
60847;SDS011;46681;47.696;9.140;2022-10-31T07:56:15;3.43;;;3.23;;
60847;SDS011;46681;47.696;9.140;2022-10-31T07:58:40;3.80;;;3.60;;
60847;SDS011;46681;47.696;9.140;2022-10-31T08:01:06;3.50;;;3.30;;
60847;SDS011;46681;47.696;9.140;2022-10-31T08:03:31;4.50;;;4.10;;
60847;SDS011;46681;47.696;9.140;2022-10-31T08:05:57;4.13;;;3.83;;
60847;SDS011;46681;47.696;9.140;2022-10-31T08:08:26;4.03;;;3.73;;
60847;SDS011;46681;47.696;9.140;2022-10-31T08:10:52;3.63;;;3.33;;
60847;SDS011;46681;47.696;9.140;2022-10-31T08:13:18;14.67;;;3.80;;
60847;SDS011;46681;47.696;9.140;2022-10-31T08:15:45;3.57;;;3.37;;
60847;SDS011;46681;47.696;9.140;2022-10-31T08:18:15;3.30;;;3.10;;
60847;SDS011;46681;47.696;9.140;2022-10-31T08:20:42;3.30;;;3.10;;
60847;SDS011;46681;47.696;9.140;2022-10-31T08:23:09;3.47;;;3.00;;
60847;SDS011;46681;47.696;9.140;2022-10-31T08:25:38;3.60;;;3.40;;
60847;SDS011;46681;47.696;9.140;2022-10-31T08:28:06;3.53;;;3.27;;
60847;SDS011;46681;47.696;9.140;2022-10-31T08:30:37;3.27;;;2.97;;
60847;SDS011;46681;47.696;9.140;2022-10-31T08:33:05;6.80;;;4.27;;
60847;SDS011;46681;47.696;9.140;2022-10-31T08:35:32;4.73;;;3.90;;
60847;SDS011;46681;47.696;9.140;2022-10-31T08:37:59;4.83;;;4.33;;
60847;SDS011;46681;47.696;9.140;2022-10-31T08:40:26;4.33;;;3.93;;
60847;SDS011;46681;47.696;9.140;2022-10-31T08:42:57;4.40;;;4.00;;
60847;SDS011;46681;47.696;9.140;2022-10-31T08:45:31;6.60;;;3.87;;
60847;SDS011;46681;47.696;9.140;2022-10-31T08:48:03;4.40;;;4.10;;
60847;SDS011;46681;47.696;9.140;2022-10-31T08:50:35;6.27;;;3.83;;
60847;SDS011;46681;47.696;9.140;2022-10-31T08:53:05;4.83;;;3.60;;
60847;SDS011;46681;47.696;9.140;2022-10-31T08:55:36;4.80;;;3.60;;
60847;SDS011;46681;47.696;9.140;2022-10-31T08:58:12;3.80;;;3.47;;
60847;SDS011;46681;47.696;9.140;2022-10-31T09:00:45;4.53;;;4.03;;
60847;SDS011;46681;47.696;9.140;2022-10-31T09:03:22;4.33;;;3.67;;
60847;SDS011;46681;47.696;9.140;2022-10-31T09:05:55;4.10;;;3.80;;
60847;SDS011;46681;47.696;9.140;2022-10-31T09:08:25;4.10;;;3.73;;
60847;SDS011;46681;47.696;9.140;2022-10-31T09:10:56;4.50;;;4.10;;
60847;SDS011;46681;47.696;9.140;2022-10-31T09:13:30;4.60;;;4.20;;
60847;SDS011;46681;47.696;9.140;2022-10-31T09:15:55;4.10;;;3.80;;
60847;SDS011;46681;47.696;9.140;2022-10-31T09:18:22;3.87;;;3.57;;
60847;SDS011;46681;47.696;9.140;2022-10-31T09:20:51;5.13;;;4.23;;
60847;SDS011;46681;47.696;9.140;2022-10-31T09:23:21;4.53;;;4.13;;
60847;SDS011;46681;47.696;9.140;2022-10-31T09:25:51;4.40;;;4.10;;
60847;SDS011;46681;47.696;9.140;2022-10-31T09:28:24;4.30;;;3.90;;
60847;SDS011;46681;47.696;9.140;2022-10-31T09:30:51;4.23;;;3.93;;
60847;SDS011;46681;47.696;9.140;2022-10-31T09:33:18;4.50;;;3.67;;
60847;SDS011;46681;47.696;9.140;2022-10-31T09:35:44;4.37;;;3.97;;
60847;SDS011;46681;47.696;9.140;2022-10-31T09:38:14;4.67;;;3.80;;
60847;SDS011;46681;47.696;9.140;2022-10-31T09:40:46;4.93;;;4.50;;
60847;SDS011;46681;47.696;9.140;2022-10-31T09:49:50;4.60;;;4.20;;
60847;SDS011;46681;47.696;9.140;2022-10-31T09:52:54;4.57;;;4.17;;
60847;SDS011;46681;47.696;9.140;2022-10-31T09:55:42;5.23;;;4.30;;
60847;SDS011;46681;47.696;9.140;2022-10-31T09:58:19;4.93;;;4.43;;
60847;SDS011;46681;47.696;9.140;2022-10-31T10:00:58;4.90;;;4.40;;
60847;SDS011;46681;47.696;9.140;2022-10-31T10:03:35;5.13;;;4.63;;
60847;SDS011;46681;47.696;9.140;2022-10-31T10:08:54;7.10;;;4.80;;
60847;SDS011;46681;47.696;9.140;2022-10-31T10:12:13;5.90;;;5.30;;
60847;SDS011;46681;47.696;9.140;2022-10-31T10:19:50;5.70;;;4.40;;
60847;SDS011;46681;47.696;9.140;2022-10-31T10:23:11;5.07;;;4.67;;
60847;SDS011;46681;47.696;9.140;2022-10-31T10:25:59;6.80;;;5.20;;
60847;SDS011;46681;47.696;9.140;2022-10-31T10:28:41;5.63;;;5.23;;
60847;SDS011;46681;47.696;9.140;2022-10-31T10:31:15;5.60;;;5.10;;
60847;SDS011;46681;47.696;9.140;2022-10-31T10:36:42;5.60;;;5.10;;
60847;SDS011;46681;47.696;9.140;2022-10-31T10:39:18;5.97;;;5.20;;
60847;SDS011;46681;47.696;9.140;2022-10-31T10:42:09;5.10;;;4.70;;
60847;SDS011;46681;47.696;9.140;2022-10-31T10:44:48;5.50;;;4.70;;
60847;SDS011;46681;47.696;9.140;2022-10-31T10:47:20;5.63;;;5.13;;
60847;SDS011;46681;47.696;9.140;2022-10-31T10:49:53;5.53;;;5.03;;
60847;SDS011;46681;47.696;9.140;2022-10-31T10:52:40;5.30;;;4.90;;
60847;SDS011;46681;47.696;9.140;2022-10-31T10:58:14;5.77;;;5.27;;
60847;SDS011;46681;47.696;9.140;2022-10-31T11:00:42;5.50;;;4.83;;
60847;SDS011;46681;47.696;9.140;2022-10-31T11:03:18;6.30;;;5.73;;
60847;SDS011;46681;47.696;9.140;2022-10-31T11:05:53;6.23;;;5.50;;
60847;SDS011;46681;47.696;9.140;2022-10-31T11:13:41;6.00;;;5.37;;
60847;SDS011;46681;47.696;9.140;2022-10-31T11:16:27;5.77;;;5.23;;
60847;SDS011;46681;47.696;9.140;2022-10-31T11:19:17;5.73;;;5.23;;
60847;SDS011;46681;47.696;9.140;2022-10-31T11:21:47;6.47;;;5.87;;
60847;SDS011;46681;47.696;9.140;2022-10-31T11:26:46;5.67;;;5.17;;
60847;SDS011;46681;47.696;9.140;2022-10-31T11:29:22;5.83;;;5.30;;
60847;SDS011;46681;47.696;9.140;2022-10-31T11:31:56;6.33;;;5.73;;
60847;SDS011;46681;47.696;9.140;2022-10-31T11:34:28;5.93;;;5.33;;
60847;SDS011;46681;47.696;9.140;2022-10-31T11:40:04;7.57;;;5.90;;
60847;SDS011;46681;47.696;9.140;2022-10-31T11:42:35;6.43;;;5.93;;
60847;SDS011;46681;47.696;9.140;2022-10-31T11:47:59;6.30;;;5.63;;
60847;SDS011;46681;47.696;9.140;2022-10-31T11:50:36;6.40;;;5.90;;
60847;SDS011;46681;47.696;9.140;2022-10-31T11:53:26;6.83;;;6.23;;
60847;SDS011;46681;47.696;9.140;2022-10-31T11:56:06;6.50;;;5.90;;
60847;SDS011;46681;47.696;9.140;2022-10-31T11:59:01;5.97;;;5.40;;
60847;SDS011;46681;47.696;9.140;2022-10-31T12:01:39;6.67;;;6.07;;
60847;SDS011;46681;47.696;9.140;2022-10-31T12:04:12;6.80;;;6.13;;
60847;SDS011;46681;47.696;9.140;2022-10-31T12:06:43;6.70;;;6.00;;
60847;SDS011;46681;47.696;9.140;2022-10-31T12:09:23;6.73;;;6.13;;
60847;SDS011;46681;47.696;9.140;2022-10-31T12:12:21;6.80;;;6.10;;
60847;SDS011;46681;47.696;9.140;2022-10-31T12:15:18;6.33;;;5.77;;
60847;SDS011;46681;47.696;9.140;2022-10-31T12:52:46;32.43;;;24.07;;
60847;SDS011;46681;47.696;9.140;2022-10-31T12:57:47;24.00;;;18.67;;
60847;SDS011;46681;47.696;9.140;2022-10-31T13:00:21;27.67;;;19.07;;
60847;SDS011;46681;47.696;9.140;2022-10-31T13:05:54;23.93;;;17.30;;
60847;SDS011;46681;47.696;9.140;2022-10-31T13:08:39;22.07;;;17.50;;
60847;SDS011;46681;47.696;9.140;2022-10-31T13:11:27;23.40;;;16.67;;
60847;SDS011;46681;47.696;9.140;2022-10-31T13:16:56;21.30;;;16.50;;
60847;SDS011;46681;47.696;9.140;2022-10-31T13:19:42;20.80;;;15.10;;
60847;SDS011;46681;47.696;9.140;2022-10-31T13:22:22;20.83;;;13.90;;
60847;SDS011;46681;47.696;9.140;2022-10-31T13:25:03;19.40;;;14.20;;
60847;SDS011;46681;47.696;9.140;2022-10-31T13:28:02;18.73;;;13.63;;
60847;SDS011;46681;47.696;9.140;2022-10-31T13:30:38;17.33;;;12.97;;
60847;SDS011;46681;47.696;9.140;2022-10-31T13:36:06;14.40;;;11.80;;
60847;SDS011;46681;47.696;9.140;2022-10-31T13:44:19;13.30;;;11.43;;
60847;SDS011;46681;47.696;9.140;2022-10-31T13:46:55;13.83;;;11.17;;
60847;SDS011;46681;47.696;9.140;2022-10-31T13:55:15;14.33;;;11.43;;
60847;SDS011;46681;47.696;9.140;2022-10-31T14:10:48;11.53;;;10.33;;
60847;SDS011;46681;47.696;9.140;2022-10-31T14:16:00;12.07;;;10.97;;
60847;SDS011;46681;47.696;9.140;2022-10-31T14:21:12;12.63;;;11.43;;
60847;SDS011;46681;47.696;9.140;2022-10-31T14:23:52;11.63;;;10.43;;
60847;SDS011;46681;47.696;9.140;2022-10-31T14:28:58;13.27;;;12.03;;
60847;SDS011;46681;47.696;9.140;2022-10-31T14:32:04;13.07;;;11.87;;
60847;SDS011;46681;47.696;9.140;2022-10-31T14:34:53;14.90;;;13.33;;
60847;SDS011;46681;47.696;9.140;2022-10-31T14:37:32;15.63;;;13.00;;
60847;SDS011;46681;47.696;9.140;2022-10-31T14:43:15;14.37;;;12.87;;
60847;SDS011;46681;47.696;9.140;2022-10-31T14:52:05;15.93;;;14.37;;
60847;SDS011;46681;47.696;9.140;2022-10-31T14:54:37;16.50;;;14.80;;
60847;SDS011;46681;47.696;9.140;2022-10-31T14:57:25;17.77;;;15.93;;
60847;SDS011;46681;47.696;9.140;2022-10-31T15:00:03;18.43;;;16.53;;
60847;SDS011;46681;47.696;9.140;2022-10-31T15:05:56;18.80;;;16.90;;
60847;SDS011;46681;47.696;9.140;2022-10-31T15:08:45;19.20;;;15.73;;
60847;SDS011;46681;47.696;9.140;2022-10-31T15:13:58;12.80;;;11.07;;
60847;SDS011;46681;47.696;9.140;2022-10-31T15:16:41;10.63;;;9.53;;
60847;SDS011;46681;47.696;9.140;2022-10-31T15:19:10;16.40;;;14.53;;
60847;SDS011;46681;47.696;9.140;2022-10-31T15:21:44;28.67;;;19.23;;
60847;SDS011;46681;47.696;9.140;2022-10-31T15:24:22;21.17;;;18.73;;
60847;SDS011;46681;47.696;9.140;2022-10-31T15:26:59;22.83;;;19.30;;
60847;SDS011;46681;47.696;9.140;2022-10-31T15:29:28;24.33;;;20.27;;
60847;SDS011;46681;47.696;9.140;2022-10-31T15:31:57;23.80;;;21.17;;
60847;SDS011;46681;47.696;9.140;2022-10-31T15:34:46;25.17;;;21.80;;
60847;SDS011;46681;47.696;9.140;2022-10-31T15:37:17;25.53;;;22.30;;
60847;SDS011;46681;47.696;9.140;2022-10-31T15:40:36;25.27;;;21.30;;
60847;SDS011;46681;47.696;9.140;2022-10-31T15:43:13;23.90;;;20.87;;
60847;SDS011;46681;47.696;9.140;2022-10-31T15:45:43;26.20;;;22.70;;
60847;SDS011;46681;47.696;9.140;2022-10-31T15:48:20;28.80;;;22.40;;
60847;SDS011;46681;47.696;9.140;2022-10-31T15:50:53;23.13;;;20.43;;
60847;SDS011;46681;47.696;9.140;2022-10-31T15:56:02;24.00;;;19.63;;
60847;SDS011;46681;47.696;9.140;2022-10-31T15:58:45;20.70;;;18.07;;
60847;SDS011;46681;47.696;9.140;2022-10-31T16:06:39;19.17;;;17.13;;
60847;SDS011;46681;47.696;9.140;2022-10-31T16:09:22;19.40;;;17.37;;
60847;SDS011;46681;47.696;9.140;2022-10-31T16:11:51;18.53;;;16.47;;
60847;SDS011;46681;47.696;9.140;2022-10-31T16:14:22;17.17;;;15.37;;
60847;SDS011;46681;47.696;9.140;2022-10-31T16:16:57;18.27;;;15.90;;
60847;SDS011;46681;47.696;9.140;2022-10-31T16:19:27;17.57;;;15.23;;
60847;SDS011;46681;47.696;9.140;2022-10-31T16:24:54;17.87;;;14.93;;
60847;SDS011;46681;47.696;9.140;2022-10-31T16:27:47;17.50;;;15.70;;
60847;SDS011;46681;47.696;9.140;2022-10-31T16:33:46;16.33;;;14.70;;
60847;SDS011;46681;47.696;9.140;2022-10-31T16:35:57;16.90;;;15.20;;
60847;SDS011;46681;47.696;9.140;2022-10-31T16:38:27;19.67;;;15.60;;
60847;SDS011;46681;47.696;9.140;2022-10-31T16:40:55;17.43;;;15.73;;
60847;SDS011;46681;47.696;9.140;2022-10-31T16:43:24;16.50;;;14.80;;
60847;SDS011;46681;47.696;9.140;2022-10-31T16:45:54;16.17;;;14.60;;
60847;SDS011;46681;47.696;9.140;2022-10-31T16:48:25;16.10;;;14.37;;
60847;SDS011;46681;47.696;9.140;2022-10-31T16:50:56;15.60;;;14.10;;
60847;SDS011;46681;47.696;9.140;2022-10-31T16:53:24;14.53;;;13.13;;
60847;SDS011;46681;47.696;9.140;2022-10-31T16:58:29;13.97;;;12.57;;
60847;SDS011;46681;47.696;9.140;2022-10-31T17:01:00;12.73;;;11.43;;
60847;SDS011;46681;47.696;9.140;2022-10-31T17:03:28;13.13;;;11.83;;
60847;SDS011;46681;47.696;9.140;2022-10-31T17:05:55;12.37;;;11.17;;
60847;SDS011;46681;47.696;9.140;2022-10-31T17:08:23;10.97;;;9.97;;
60847;SDS011;46681;47.696;9.140;2022-10-31T17:10:59;11.83;;;10.67;;
60847;SDS011;46681;47.696;9.140;2022-10-31T17:13:30;9.60;;;8.60;;
60847;SDS011;46681;47.696;9.140;2022-10-31T17:16:00;9.83;;;8.77;;
60847;SDS011;46681;47.696;9.140;2022-10-31T17:18:29;10.13;;;9.17;;
60847;SDS011;46681;47.696;9.140;2022-10-31T17:20:56;9.50;;;8.67;;
60847;SDS011;46681;47.696;9.140;2022-10-31T17:23:30;8.73;;;7.87;;
60847;SDS011;46681;47.696;9.140;2022-10-31T17:25:56;10.23;;;8.20;;
60847;SDS011;46681;47.696;9.140;2022-10-31T17:28:28;8.27;;;7.57;;
60847;SDS011;46681;47.696;9.140;2022-10-31T17:31:01;8.30;;;7.50;;
60847;SDS011;46681;47.696;9.140;2022-10-31T17:33:29;7.70;;;7.00;;
60847;SDS011;46681;47.696;9.140;2022-10-31T17:35:58;8.47;;;7.77;;
60847;SDS011;46681;47.696;9.140;2022-10-31T17:38:31;8.13;;;7.43;;
60847;SDS011;46681;47.696;9.140;2022-10-31T17:41:03;7.77;;;7.07;;
60847;SDS011;46681;47.696;9.140;2022-10-31T17:43:35;7.47;;;6.87;;
60847;SDS011;46681;47.696;9.140;2022-10-31T17:46:04;7.73;;;7.03;;
60847;SDS011;46681;47.696;9.140;2022-10-31T17:48:33;7.10;;;6.43;;
60847;SDS011;46681;47.696;9.140;2022-10-31T17:51:03;7.10;;;6.50;;
60847;SDS011;46681;47.696;9.140;2022-10-31T17:53:34;7.67;;;6.93;;
60847;SDS011;46681;47.696;9.140;2022-10-31T17:56:04;7.10;;;6.50;;
60847;SDS011;46681;47.696;9.140;2022-10-31T17:58:43;6.47;;;5.97;;
60847;SDS011;46681;47.696;9.140;2022-10-31T18:01:13;6.80;;;6.20;;